Latest Weather Observations for Friendly Beaches

IDT60801

Issued at 7:35 pm EDT Monday 24 November 2014 (issued every 30 minutes, with the page automatically refreshed every 10 minutes)

About weather observations | Map of weather stations | Latest weather observations for TAS | Other Formats
Station Details ID: 092114 Name: FRIENDLY BEACHES Lat: -42.00 Lon: 148.28 Height: 55.0 m
Data from the previous 72 hours. | See also: Recent months at Friendly Beaches
Date/Time
EDT
Temp
°C
App
Temp
°C
Dew
Point
Rel
Hum
%
Delta-T
°C
Wind Press
QNH
hPa
Press
MSL
hPa
Rain
since 9 am
mm
Dir
 
Spd
km/h
Gust
km/h
Spd
kts
Gust
kts
24/07:30pm 15.5 15.0 11.9 79 2.0 SW 6 9 3 5 1001.6 1001.5 1.2
24/07:00pm 15.3 15.2 12.2 82 1.7 WSW 4 6 2 3 1001.6 1001.5 1.2
24/06:30pm 15.2 13.8 12.2 82 1.6 NNW 11 19 6 10 1001.5 1001.4 1.2
24/06:00pm 15.1 12.5 12.1 82 1.6 N 17 32 9 17 1001.2 1001.2 1.2
24/05:30pm 15.2 12.1 12.3 83 1.6 N 20 35 11 19 1001.7 1001.6 1.2
24/05:00pm 15.7 12.6 12.3 80 1.9 N 20 33 11 18 1001.6 1001.5 1.2
24/04:30pm 17.3 14.3 12.4 73 2.7 N 20 32 11 17 1001.9 1001.8 1.2
24/04:00pm 16.3 12.4 12.1 76 2.3 NNE 24 37 13 20 1002.2 1002.1 1.2
24/03:30pm 15.1 12.9 12.2 83 1.6 NNE 15 26 8 14 1003.2 1003.1 1.2
24/03:00pm 15.1 13.9 11.5 79 1.9 NE 9 17 5 9 1004.2 1004.1 1.2
24/02:30pm 14.9 13.3 11.5 80 1.8 NNE 11 15 6 8 1005.4 1005.3 1.2
24/02:00pm 14.5 12.9 11.5 82 1.6 NNE 11 15 6 8 1006.0 1005.9 1.2
24/01:30pm 14.4 14.1 12.8 90 0.9 ENE 6 9 3 5 1006.7 1006.6 1.2
24/01:00pm 14.3 13.4 12.5 89 1.0 NE 9 15 5 8 1007.0 1006.9 1.2
24/12:30pm 14.2 13.4 12.8 91 0.8 NE 9 13 5 7 1007.4 1007.3 1.2
24/12:00pm 14.2 13.4 12.9 92 0.7 ENE 9 13 5 7 1007.7 1007.6 1.0
24/11:30am 14.5 13.4 13.0 91 0.8 SE 11 13 6 7 1007.9 1007.8 0.6
24/11:00am 14.5 14.1 12.4 87 1.1 SSE 6 9 3 5 1008.6 1008.5 0.2
24/10:30am 15.0 14.3 11.4 79 1.9 NE 6 11 3 6 1009.2 1009.1 0.0
24/10:00am 15.6 15.1 12.2 80 1.9 E 6 9 3 5 1008.9 1008.8 0.0
24/09:30am 14.6 13.7 10.6 77 2.1 SSE 6 9 3 5 1009.4 1009.3 0.0
24/09:00am 14.9 14.7 10.5 75 2.3 N 2 6 1 3 1009.6 1009.5 0.0
24/08:30am 15.1 14.4 9.9 71 2.7 N 4 7 2 4 1009.7 1009.6 0.0
24/08:00am 14.9 12.1 8.6 66 3.2 N 13 19 7 10 1009.1 1009.0 0.0
24/07:30am 14.1 12.7 9.5 74 2.4 NNE 7 11 4 6 1008.8 1008.7 0.0
24/07:00am 12.9 11.4 9.0 77 2.0 NNE 7 11 4 6 1009.7 1009.6 0.0
24/06:30am 12.2 10.9 7.7 74 2.2 NNW 4 6 2 3 1009.7 1009.6 0.0
24/06:00am 11.4 10.1 7.7 78 1.8 N 4 6 2 3 1009.8 1009.7 0.0
24/05:30am 11.4 9.9 8.6 83 1.4 W 6 7 3 4 1009.3 1009.2 0.0
24/05:00am 12.0 10.2 7.1 72 2.4 WNW 6 7 3 4 1009.6 1009.5 0.0
24/04:30am 11.7 10.2 9.3 85 1.2 WNW 7 9 4 5 1009.9 1009.8 0.0
24/04:00am 11.7 10.0 9.9 89 0.9 W 9 11 5 6 1009.9 1009.8 0.0
24/03:30am 11.8 9.8 10.0 89 0.9 WNW 11 13 6 7 1010.0 1009.9 0.0
24/03:00am 12.3 10.5 10.9 91 0.7 W 11 15 6 8 1009.8 1009.7 0.0
24/02:30am 12.3 11.1 11.5 95 0.4 W 9 11 5 6 1010.0 1009.9 0.0
24/02:00am 12.6 11.5 12.0 96 0.3 W 9 11 5 6 1010.2 1010.1 0.0
24/01:30am 12.5 11.7 11.7 95 0.4 NW 7 7 4 4 1010.6 1010.6 0.0
24/01:00am 12.9 12.4 12.1 95 0.4 W 6 7 3 4 1011.1 1011.1 0.0
24/12:30am 12.7 12.1 11.8 94 0.5 W 6 6 3 3 1011.3 1011.3 0.0
24/12:00am 13.0 12.5 11.9 93 0.6 S 6 7 3 4 1011.1 1011.1 0.0
 
Date/Time
EDT
Temp
°C
App
Temp
°C
Dew
Point
Rel
Hum
%
Delta-T
°C
Wind Press
QNH
hPa
Press
MSL
hPa
Rain
since 9 am
mm
Dir
 
Spd
km/h
Gust
km/h
Spd
kts
Gust
kts
23/11:30pm 13.2 12.7 11.9 92 0.7 SSE 6 7 3 4 1011.4 1011.4 0.0
23/11:00pm 13.4 13.0 12.3 93 0.6 S 6 7 3 4 1011.4 1011.4 0.0
23/10:30pm 13.4 13.6 12.0 91 0.8 S 2 6 1 3 1011.5 1011.5 0.0
23/10:00pm 14.0 13.5 12.2 89 1.0 SE 6 7 3 4 1011.3 1011.3 0.0
23/09:30pm 14.3 13.8 12.0 86 1.2 ESE 6 7 3 4 1011.5 1011.5 0.0
23/09:00pm 15.0 14.1 12.7 86 1.3 E 9 20 5 11 1011.2 1011.2 0.0
23/08:30pm 15.4 15.1 12.7 84 1.5 NE 6 13 3 7 1011.0 1011.0 0.0
23/08:00pm 15.9 15.6 12.8 82 1.7 NE 6 11 3 6 1010.9 1010.9 0.0
23/07:30pm 16.0 14.4 12.9 82 1.7 ENE 13 20 7 11 1010.4 1010.4 0.0
23/07:00pm 16.4 16.0 12.9 80 2.0 ENE 7 13 4 7 1010.3 1010.3 0.0
23/06:30pm 16.9 15.8 13.2 79 2.1 ENE 11 17 6 9 1010.4 1010.4 0.0
23/06:00pm 17.5 16.2 12.6 73 2.7 ENE 11 15 6 8 1010.4 1010.4 0.0
23/05:30pm 18.8 17.3 13.0 69 3.3 NE 13 20 7 11 1010.2 1010.1 0.0
23/05:00pm 18.6 16.9 13.5 72 2.9 ENE 15 20 8 11 1009.6 1009.5 0.0
23/04:30pm 18.5 17.1 13.4 72 2.9 ENE 13 19 7 10 1009.6 1009.5 0.0
23/04:00pm 18.9 16.6 12.9 68 3.4 ENE 17 22 9 12 1009.4 1009.3 0.0
23/03:30pm 19.0 17.5 13.0 68 3.4 ENE 13 20 7 11 1009.4 1009.3 0.0
23/03:00pm 20.5 18.6 14.2 67 3.7 ENE 17 22 9 12 1009.5 1009.4 0.0
23/02:30pm 20.6 18.3 13.1 62 4.3 ENE 17 26 9 14 1009.6 1009.5 0.0
23/02:00pm 21.0 18.7 14.2 65 4.0 NE 19 28 10 15 1009.8 1009.7 0.0
23/01:30pm 21.1 18.4 13.0 60 4.6 NE 19 28 10 15 1009.7 1009.6 0.0
23/01:00pm 20.7 18.2 13.4 63 4.2 NE 19 26 10 14 1009.5 1009.4 0.0
23/12:30pm 20.1 18.6 13.1 64 4.0 E 13 17 7 9 1009.2 1009.1 0.0
23/12:00pm 19.9 18.0 13.1 65 3.9 E 15 20 8 11 1009.2 1009.1 0.0
23/11:30am 20.1 18.6 13.1 64 4.0 E 13 20 7 11 1009.2 1009.1 0.0
23/11:00am 20.1 17.8 13.1 64 4.0 ESE 17 22 9 12 1008.9 1008.8 0.0
23/10:30am 20.1 17.9 13.3 65 3.9 ESE 17 26 9 14 1008.6 1008.5 0.0
23/10:00am 19.6 16.5 12.1 62 4.2 ESE 20 30 11 16 1008.2 1008.1 0.0
23/09:30am 21.2 17.5 8.1 43 6.8 S 17 24 9 13 1007.9 1007.8 0.0
23/09:00am 20.3 17.2 8.9 48 6.0 SW 15 22 8 12 1007.7 1007.6 0.0
23/08:30am 19.8 16.3 8.8 49 5.8 SW 17 28 9 15 1007.2 1007.1 0.0
23/08:00am 19.3 17.8 10.6 57 4.7 SSW 9 15 5 8 1007.0 1006.9 0.0
23/07:30am 18.1 16.7 11.0 63 3.8 WSW 9 15 5 8 1006.3 1006.2 0.0
23/07:00am 17.1 15.7 10.9 67 3.3 WSW 9 15 5 8 1005.8 1005.7 0.0
23/06:30am 15.9 14.0 10.4 70 2.9 WSW 11 19 6 10 1005.1 1005.0 0.0
23/06:00am 15.1 13.6 10.5 74 2.4 WSW 9 13 5 7 1004.6 1004.5 0.0
23/05:30am 14.6 12.7 10.6 77 2.1 WSW 11 17 6 9 1004.4 1004.3 0.0
23/05:00am 13.8 12.1 10.0 78 2.0 W 9 13 5 7 1003.9 1003.8 0.0
23/04:30am 13.8 12.3 10.4 80 1.8 W 9 11 5 6 1003.6 1003.5 0.0
23/04:00am 13.7 12.1 10.3 80 1.8 W 9 13 5 7 1003.4 1003.3 0.0
23/03:30am 16.0 14.6 9.4 65 3.4 W 7 13 4 7 1003.1 1003.0 0.0
23/03:00am 15.9 15.0 9.3 65 3.4 WNW 4 6 2 3 1002.7 1002.6 0.0
23/02:30am 14.5 13.4 9.9 74 2.4 N 6 7 3 4 1002.6 1002.5 0.0
23/02:00am 16.8 15.4 9.5 62 3.8 NNW 7 11 4 6 1003.2 1003.1 0.0
23/01:30am 16.8 14.3 9.7 63 3.7 N 13 19 7 10 1002.8 1002.7 0.0
23/01:00am 15.0 13.9 10.6 75 2.3 W 7 17 4 9 1003.8 1003.7 0.0
23/12:30am 14.5 13.6 10.7 78 2.0 S 6 7 3 4 1004.1 1004.0 0.0
23/12:00am 15.8 14.7 10.6 71 2.8 NE 7 11 4 6 1004.0 1003.9 0.0
 
Date/Time
EDT
Temp
°C
App
Temp
°C
Dew
Point
Rel
Hum
%
Delta-T
°C
Wind Press
QNH
hPa
Press
MSL
hPa
Rain
since 9 am
mm
Dir
 
Spd
km/h
Gust
km/h
Spd
kts
Gust
kts
22/11:30pm 16.0 14.5 10.7 71 2.8 N 9 13 5 7 1004.5 1004.4 0.0
22/11:00pm 17.3 13.5 11.1 67 3.4 N 22 35 12 19 1004.5 1004.4 0.0
22/10:30pm 17.0 13.9 11.5 70 3.0 N 19 32 10 17 1004.5 1004.4 0.0
22/10:00pm 16.3 14.0 11.9 75 2.4 N 15 24 8 13 1004.7 1004.6 0.0
22/09:30pm 16.0 13.1 12.4 79 2.0 N 19 26 10 14 1005.0 1004.9 0.0
22/09:00pm 16.5 13.4 12.3 76 2.3 NNE 20 28 11 15 1005.0 1004.9 0.0
22/08:30pm 16.9 13.5 12.4 75 2.5 N 22 35 12 19 1004.8 1004.7 0.0
22/08:00pm 17.1 14.6 12.2 73 2.7 NNE 17 22 9 12 1004.9 1004.8 0.0
22/07:30pm 18.1 15.1 11.9 67 3.4 N 19 30 10 16 1004.7 1004.6 0.0
22/07:00pm 19.4 16.2 11.2 59 4.5 N 19 30 10 16 1004.6 1004.5 0.0
22/06:30pm 20.5 17.9 10.6 53 5.4 N 15 24 8 13 1004.5 1004.4 0.0
22/06:00pm 21.8 18.8 10.6 49 6.2 N 17 26 9 14 1004.3 1004.2 0.0
22/05:30pm 21.2 17.7 10.1 49 6.0 N 19 30 10 16 1004.5 1004.4 0.0
22/05:00pm 21.7 17.8 9.6 46 6.5 N 20 32 11 17 1004.8 1004.7 0.0
22/04:30pm 23.9 19.4 10.2 42 7.6 N 24 39 13 21 1004.6 1004.5 0.0
22/04:00pm 23.8 20.1 11.5 46 7.0 N 22 37 12 20 1004.9 1004.8 0.0
22/03:30pm 20.7 15.6 10.5 52 5.6 NNE 28 43 15 23 1005.0 1004.9 0.0
22/03:00pm 21.8 17.1 10.6 49 6.2 N 26 41 14 22 1005.5 1005.4 0.0
22/02:38pm 20.9 15.0 8.9 46 6.4 N 30 50 16 27 1005.9 1005.8 0.0
22/02:30pm 22.3 16.8 9.1 43 7.1 N 28 43 15 23 1006.0 1005.9 0.0
22/02:00pm 22.8 17.8 10.9 47 6.6 NNE 28 41 15 22 1006.1 1006.0 0.0
22/01:30pm 21.9 17.2 10.7 49 6.2 NNE 26 39 14 21 1006.6 1006.5 0.0
22/01:00pm 22.2 18.0 11.0 49 6.2 NNE 24 33 13 18 1007.2 1007.1 0.0
22/12:30pm 20.6 17.4 11.2 55 5.2 NE 19 30 10 16 1007.7 1007.6 0.0
22/12:00pm 18.5 14.8 9.6 56 4.7 NNE 19 28 10 15 1008.0 1007.9 0.0
22/11:30am 18.5 15.0 8.7 53 5.1 NNE 17 24 9 13 1008.2 1008.1 0.0
22/11:00am 16.7 14.6 9.6 63 3.7 NNE 11 17 6 9 1008.4 1008.3 0.0
22/10:30am 15.2 13.6 8.0 62 3.6 N 6 9 3 5 1008.8 1008.7 0.0
22/10:00am 15.3 14.1 6.6 56 4.3 NW 2 9 1 5 1008.6 1008.5 0.0
22/09:30am 15.3 14.0 7.8 61 3.8 WSW 4 9 2 5 1008.9 1008.8 0.0
22/09:00am 15.6 13.7 7.6 59 4.0 N 7 19 4 10 1008.9 1008.8 2.0
22/08:30am 15.0 13.2 7.1 59 3.9 WNW 6 15 3 8 1008.9 1008.8 2.0
22/08:00am 14.9 14.1 9.7 71 2.7 ENE 4 19 2 10 1008.8 1008.7 2.0
22/07:30am 13.7 13.3 9.6 76 2.1 NNW 2 7 1 4 1008.4 1008.3 2.0
22/07:00am 13.0 11.6 9.6 80 1.7 NE 7 9 4 5 1008.5 1008.4 2.0
22/06:30am 12.2 10.7 10.4 89 0.9 NE 9 11 5 6 1008.4 1008.3 2.0
22/06:00am 10.7 9.2 9.0 89 0.8 NE 7 9 4 5 1008.1 1008.0 2.0
22/05:30am 10.8 8.5 9.1 89 0.8 NNE 11 15 6 8 1008.0 1007.9 2.0
22/05:00am 11.0 8.7 9.1 88 1.0 NNE 11 17 6 9 1008.0 1007.9 2.0
22/04:30am 11.7 8.4 9.6 87 1.1 N 17 24 9 13 1008.1 1008.0 2.0
22/04:00am 11.7 8.4 9.6 87 1.1 N 17 28 9 15 1008.1 1008.0 2.0
22/03:30am 11.4 8.7 9.1 86 1.2 N 13 22 7 12 1008.4 1008.3 2.0
22/03:00am 11.1 8.3 8.5 84 1.3 NNE 13 20 7 11 1008.9 1008.8 2.0
22/02:30am 11.4 8.6 8.4 82 1.5 N 13 22 7 12 1009.4 1009.3 2.0
22/02:00am 11.4 8.6 8.4 82 1.5 N 13 22 7 12 1009.7 1009.6 2.0
22/01:30am 11.2 8.7 8.1 81 1.5 N 11 19 6 10 1009.9 1009.8 2.0
22/01:00am 11.2 8.7 8.1 81 1.5 N 11 19 6 10 1010.4 1010.4 2.0
22/12:30am 10.7 8.9 7.9 83 1.4 N 7 15 4 8 1010.8 1010.8 2.0
22/12:00am 11.3 8.8 8.0 80 1.6 N 11 17 6 9 1011.1 1011.1 2.0
 
Date/Time
EDT
Temp
°C
App
Temp
°C
Dew
Point
Rel
Hum
%
Delta-T
°C
Wind Press
QNH
hPa
Press
MSL
hPa
Rain
since 9 am
mm
Dir
 
Spd
km/h
Gust
km/h
Spd
kts
Gust
kts
21/11:30pm 11.2 8.6 7.9 80 1.6 N 11 15 6 8 1011.1 1011.1 2.0
21/11:00pm 11.9 9.7 8.0 77 1.9 N 9 13 5 7 1011.4 1011.4 2.0
21/10:30pm 11.9 9.7 7.8 76 2.0 NE 9 13 5 7 1011.5 1011.5 2.0
21/10:00pm 12.3 10.1 7.8 74 2.2 NE 9 13 5 7 1011.3 1011.3 2.0
21/09:30pm 12.3 10.6 8.2 76 2.0 E 7 13 4 7 1011.1 1011.1 2.0
21/09:00pm 12.0 9.9 8.1 77 1.9 ESE 9 13 5 7 1010.9 1010.9 2.0
21/08:30pm 11.4 8.8 7.7 78 1.8 ESE 11 15 6 8 1010.3 1010.3 2.0
21/08:00pm 11.5 8.3 7.0 74 2.2 SE 13 19 7 10 1009.6 1009.5 2.0

Other Formats:

Comma delimited format used in spreadsheet applications
http://www.bom.gov.au/fwo/IDT60801/IDT60801.94987.axf

JavaScript Object Notation format (JSON) in row-major order
http://www.bom.gov.au/fwo/IDT60801/IDT60801.94987.json